Time;durP1;ratioP1;P1;durP2;ratioP2;P2;SDS_P1;SDS_P2;PMS_P1;PMS_P2;Temp;Humidity;BMP_temperature;BMP_pressure;BME280_temperature;BME280_humidity;BME280_pressure;Samples;Min_cycle;Max_cycle;Signal;HPM_P1;HPM_P2
2022/05/29 00:01:52;;;;;;;0.30;0.30;;;14.40;96.60;;;;;;5088199;28;20427;-84
2022/05/29 00:04:19;;;;;;;0.20;0.20;;;14.40;95.90;;;;;;5088006;28;20397;-80
2022/05/29 00:06:49;;;;;;;0.35;0.20;;;14.50;95.30;;;;;;5088085;28;20382;-82
2022/05/29 00:09:21;;;;;;;0.55;0.30;;;14.50;93.70;;;;;;5088361;28;20375;-85
2022/05/29 00:11:48;;;;;;;0.60;0.40;;;14.60;94.50;;;;;;5088400;28;20399;-89
2022/05/29 00:14:15;;;;;;;0.30;0.30;;;14.60;92.80;;;;;;5088420;28;20399;-81
2022/05/29 00:16:42;;;;;;;0.30;0.30;;;14.70;92.40;;;;;;5088177;28;20770;-85
2022/05/29 00:19:09;;;;;;;0.50;0.30;;;14.80;92.10;;;;;;5088280;28;20385;-88
2022/05/29 00:21:37;;;;;;;0.60;0.30;;;14.90;93.30;;;;;;5088158;28;20361;-84
2022/05/29 00:24:06;;;;;;;0.40;0.40;;;14.90;92.50;;;;;;5088025;28;20986;-86
2022/05/29 00:26:33;;;;;;;1.00;0.30;;;14.90;90.40;;;;;;5088320;28;20875;-89
2022/05/29 00:29:00;;;;;;;0.47;0.30;;;15.00;90.20;;;;;;5088215;28;20385;-83
2022/05/29 00:31:27;;;;;;;0.20;0.20;;;15.00;89.00;;;;;;5088152;28;20455;-92
2022/05/29 00:33:55;;;;;;;0.30;0.20;;;15.10;88.80;;;;;;5091519;28;20380;-88
2022/05/29 00:36:22;;;;;;;0.37;0.20;;;15.30;90.30;;;;;;5091701;28;20374;-85
2022/05/29 00:38:50;;;;;;;0.45;0.20;;;15.30;86.30;;;;;;5091750;28;20377;-80
2022/05/29 00:41:20;;;;;;;1.08;0.50;;;15.20;85.70;;;;;;5091327;28;20450;-80
2022/05/29 00:44:05;;;;;;;1.20;0.30;;;15.30;88.00;;;;;;5091380;28;20905;-82
2022/05/29 00:46:34;;;;;;;0.70;0.20;;;15.40;88.10;;;;;;5091377;28;20432;-87
2022/05/29 00:49:09;;;;;;;0.55;0.20;;;15.40;85.50;;;;;;5091380;28;20361;-81
2022/05/29 00:51:43;;;;;;;0.75;0.30;;;15.40;83.90;;;;;;5091477;28;20916;-81
2022/05/29 00:54:11;;;;;;;0.45;0.17;;;15.60;82.80;;;;;;5091684;28;20368;-81
2022/05/29 00:56:39;;;;;;;0.88;0.20;;;15.60;81.10;;;;;;5093202;28;20368;-84
2022/05/29 00:59:14;;;;;;;0.40;0.30;;;15.50;79.20;;;;;;5093510;28;20368;-81
2022/05/29 01:01:41;;;;;;;0.50;0.20;;;15.40;81.50;;;;;;5091996;28;20386;-82
2022/05/29 01:04:09;;;;;;;1.80;0.30;;;15.50;79.10;;;;;;5095570;28;20430;-82
2022/05/29 01:06:36;;;;;;;0.60;0.38;;;15.60;80.60;;;;;;5073658;28;20464;-83
2022/05/29 01:09:05;;;;;;;1.20;0.45;;;15.70;78.60;;;;;;5091255;28;20381;-81
2022/05/29 01:11:54;;;;;;;0.68;0.20;;;15.80;79.20;;;;;;5091060;28;20375;-83
2022/05/29 01:14:29;;;;;;;1.60;0.60;;;15.80;79.90;;;;;;5090813;28;20755;-80
2022/05/29 01:17:15;;;;;;;0.65;0.40;;;15.80;80.20;;;;;;5091592;28;20368;-82
2022/05/29 01:19:56;;;;;;;0.63;0.32;;;15.90;80.40;;;;;;5091666;28;20377;-80
2022/05/29 01:22:41;;;;;;;1.00;0.68;;;16.00;79.20;;;;;;5090641;28;20364;-79
2022/05/29 01:25:35;;;;;;;1.20;0.30;;;16.10;79.90;;;;;;5090919;28;20450;-84
2022/05/29 01:28:28;;;;;;;0.50;0.30;;;16.20;78.10;;;;;;5090903;28;20748;-83
2022/05/29 01:31:05;;;;;;;1.00;0.20;;;16.30;77.00;;;;;;5090604;28;20368;-83
2022/05/29 01:33:49;;;;;;;0.40;0.20;;;16.30;76.60;;;;;;5091971;28;20364;-84
2022/05/29 01:36:22;;;;;;;0.32;0.20;;;16.20;76.30;;;;;;5090407;28;20376;-80
2022/05/29 01:38:59;;;;;;;0.43;0.30;;;16.10;76.50;;;;;;5090570;28;20371;-79
2022/05/29 01:41:44;;;;;;;0.22;0.22;;;16.00;78.20;;;;;;5090851;28;20418;-80
2022/05/29 01:44:40;;;;;;;0.75;0.30;;;16.20;74.70;;;;;;5089293;28;20508;-83
2022/05/29 01:47:24;;;;;;;0.13;0.10;;;16.10;74.80;;;;;;5090085;28;20410;-79
2022/05/29 01:50:01;;;;;;;0.60;0.30;;;16.10;75.00;;;;;;5090345;28;20359;-84
2022/05/29 01:52:34;;;;;;;0.22;0.22;;;16.30;73.60;;;;;;5089972;28;20443;-81
2022/05/29 01:55:15;;;;;;;0.60;0.20;;;16.30;74.90;;;;;;5090104;28;20369;-80
2022/05/29 01:57:47;;;;;;;0.50;0.30;;;16.50;73.00;;;;;;5093943;28;20400;-82
2022/05/29 02:00:18;;;;;;;0.30;0.20;;;16.30;72.00;;;;;;5071795;28;20461;-84
2022/05/29 02:03:17;;;;;;;0.85;0.20;;;16.40;73.80;;;;;;5091422;28;20373;-82
2022/05/29 02:05:51;;;;;;;0.50;0.20;;;16.30;75.10;;;;;;4988381;28;20404;-81
2022/05/29 02:08:41;;;;;;;0.70;0.20;;;16.40;72.40;;;;;;4988018;28;21069;-81
2022/05/29 02:11:16;;;;;;;0.17;0.13;;;16.40;71.30;;;;;;4988085;28;20380;-83
2022/05/29 02:13:43;;;;;;;1.00;0.20;;;16.30;71.20;;;;;;4988189;28;20376;-83
2022/05/29 02:16:19;;;;;;;0.10;0.10;;;16.40;73.60;;;;;;4988260;28;20436;-83
2022/05/29 02:18:51;;;;;;;1.20;0.30;;;16.30;69.90;;;;;;4988549;28;20471;-85
2022/05/29 02:21:42;;;;;;;1.70;0.20;;;16.40;70.60;;;;;;4988591;28;20501;-84
2022/05/29 02:24:13;;;;;;;5.60;0.30;;;16.40;72.40;;;;;;4988027;28;20913;-86
2022/05/29 02:27:03;;;;;;;0.20;0.20;;;16.50;71.00;;;;;;4989703;28;20392;-88
2022/05/29 02:29:30;;;;;;;0.50;0.20;;;16.30;71.30;;;;;;4981668;28;20385;-92
2022/05/29 02:32:06;;;;;;;0.30;0.20;;;16.60;73.80;;;;;;4988828;28;20399;-81
2022/05/29 02:34:59;;;;;;;1.13;0.22;;;16.70;73.70;;;;;;4994689;28;20383;-91
2022/05/29 02:37:45;;;;;;;5.88;2.88;;;16.90;70.30;;;;;;5007961;28;20465;-86
2022/05/29 02:40:41;;;;;;;0.22;0.22;;;16.70;69.30;;;;;;5011921;28;20380;-87
2022/05/29 02:43:17;;;;;;;0.52;0.43;;;16.80;70.50;;;;;;5090058;28;20413;-91
2022/05/29 02:46:25;;;;;;;0.70;0.40;;;16.60;71.20;;;;;;5089364;28;20385;-87
2022/05/29 02:49:03;;;;;;;0.90;0.20;;;16.80;71.90;;;;;;5089197;28;20374;-81
2022/05/29 02:51:52;;;;;;;1.42;1.33;;;16.90;72.20;;;;;;5090927;28;20906;-86
2022/05/29 02:54:26;;;;;;;1.40;0.65;;;16.80;71.20;;;;;;5089769;28;20893;-90
2022/05/29 02:56:54;;;;;;;0.32;0.30;;;16.80;71.70;;;;;;5090105;28;20380;-80
2022/05/29 02:59:25;;;;;;;0.40;0.20;;;17.00;70.50;;;;;;5088253;28;20723;-80
2022/05/29 03:02:28;;;;;;;0.82;0.80;;;17.20;71.90;;;;;;5089820;28;20405;-88
2022/05/29 03:05:19;;;;;;;1.27;1.17;;;17.20;70.30;;;;;;5089453;28;20430;-84
2022/05/29 03:07:46;;;;;;;1.63;1.53;;;17.00;68.60;;;;;;5089390;28;20368;-83
2022/05/29 03:10:18;;;;;;;1.02;0.88;;;17.00;68.80;;;;;;5089375;28;20471;-82
2022/05/29 03:12:45;;;;;;;0.43;0.20;;;17.00;68.00;;;;;;5089255;28;20493;-85
2022/05/29 03:15:18;;;;;;;1.77;0.40;;;17.00;69.00;;;;;;5088730;28;20404;-82
2022/05/29 03:18:09;;;;;;;0.30;0.30;;;17.00;68.70;;;;;;5087926;28;20775;-82
2022/05/29 03:20:46;;;;;;;0.25;0.20;;;17.00;69.30;;;;;;5089729;28;20369;-81
2022/05/29 03:23:31;;;;;;;0.55;0.20;;;17.00;68.10;;;;;;5089686;28;20361;-83
2022/05/29 03:26:05;;;;;;;0.60;0.20;;;17.10;67.40;;;;;;5089331;28;20395;-84
2022/05/29 03:28:49;;;;;;;0.60;0.20;;;17.00;67.60;;;;;;5089113;28;20372;-82
2022/05/29 03:31:21;;;;;;;1.50;0.20;;;17.10;69.10;;;;;;5088328;28;20856;-84
2022/05/29 03:33:49;;;;;;;0.30;0.20;;;17.20;67.40;;;;;;5089905;28;20368;-82
2022/05/29 03:36:19;;;;;;;0.90;0.20;;;17.20;67.60;;;;;;5089563;28;20423;-88
2022/05/29 03:38:47;;;;;;;0.50;0.20;;;17.20;67.60;;;;;;5090547;28;20371;-82
2022/05/29 03:41:23;;;;;;;1.20;0.30;;;17.30;67.50;;;;;;5089698;28;20379;-82
2022/05/29 03:43:50;;;;;;;0.20;0.20;;;17.20;67.20;;;;;;5090438;28;20388;-82
2022/05/29 03:46:17;;;;;;;0.50;0.30;;;17.00;67.20;;;;;;5090147;28;20377;-88
2022/05/29 03:48:44;;;;;;;0.80;0.27;;;17.00;68.60;;;;;;5089585;28;20411;-82
2022/05/29 03:51:11;;;;;;;1.33;0.52;;;17.00;68.10;;;;;;5090656;28;20382;-87
2022/05/29 03:53:38;;;;;;;0.20;0.20;;;17.10;68.80;;;;;;5090211;28;20361;-83
2022/05/29 03:56:05;;;;;;;0.30;0.30;;;17.30;70.30;;;;;;5090207;28;20902;-87
2022/05/29 03:58:32;;;;;;;0.30;0.30;;;17.20;67.30;;;;;;5090888;28;20368;-82
2022/05/29 04:00:59;;;;;;;2.13;0.30;;;17.20;67.00;;;;;;5089440;28;20365;-86
2022/05/29 04:03:26;;;;;;;0.45;0.20;;;17.20;68.40;;;;;;5089778;28;20395;-83
2022/05/29 04:05:54;;;;;;;0.30;0.20;;;17.20;69.30;;;;;;5089018;28;20404;-80
2022/05/29 04:13:53;;;;;;;1.33;0.20;;;17.10;69.40;;;;;;5093238;28;20387;-84
2022/05/29 04:16:20;;;;;;;1.35;0.30;;;17.10;68.60;;;;;;5092969;28;20430;-82
2022/05/29 04:18:47;;;;;;;1.30;0.25;;;17.20;68.30;;;;;;5092966;28;20467;-82
2022/05/29 04:21:14;;;;;;;0.50;0.30;;;17.10;68.00;;;;;;5092183;28;20462;-86
2022/05/29 04:23:41;;;;;;;1.40;0.20;;;17.00;67.80;;;;;;5092860;28;20389;-83
2022/05/29 04:26:12;;;;;;;2.00;0.20;;;16.90;69.10;;;;;;5095424;28;20860;-82
2022/05/29 04:28:39;;;;;;;0.80;0.25;;;16.90;68.50;;;;;;5093683;28;20396;-85
2022/05/29 04:31:05;;;;;;;4.78;0.50;;;16.80;69.50;;;;;;5073574;28;20422;-83
2022/05/29 04:33:33;;;;;;;0.90;0.20;;;16.90;71.70;;;;;;5091569;28;20365;-83
2022/05/29 04:36:00;;;;;;;0.20;0.20;;;16.90;68.40;;;;;;5088384;28;20443;-86
2022/05/29 04:38:29;;;;;;;1.70;0.40;;;16.70;68.80;;;;;;5092414;28;20410;-83
2022/05/29 04:40:57;;;;;;;2.00;0.50;;;16.80;70.10;;;;;;5091293;28;20377;-84
2022/05/29 04:43:25;;;;;;;0.43;0.20;;;16.90;69.50;;;;;;5092117;28;20881;-81
2022/05/29 04:45:56;;;;;;;0.40;0.30;;;17.00;68.50;;;;;;5091271;28;20381;-85
2022/05/29 04:48:24;;;;;;;0.40;0.30;;;17.00;67.90;;;;;;5091159;28;20373;-82
2022/05/29 04:51:02;;;;;;;0.50;0.20;;;17.00;68.70;;;;;;5091421;28;20865;-86
2022/05/29 04:53:30;;;;;;;2.03;0.20;;;17.10;69.70;;;;;;5091317;28;20403;-83
2022/05/29 04:55:59;;;;;;;7.18;0.40;;;17.20;67.10;;;;;;5091929;28;20836;-81
2022/05/29 04:58:28;;;;;;;1.70;0.30;;;17.30;67.50;;;;;;5091244;28;20365;-87
2022/05/29 05:01:03;;;;;;;1.48;0.30;;;17.20;68.40;;;;;;5091504;28;20427;-85
2022/05/29 05:03:31;;;;;;;0.52;0.38;;;17.00;68.10;;;;;;5091019;28;20372;-83
2022/05/29 05:05:58;;;;;;;1.13;0.35;;;16.80;69.00;;;;;;5091176;28;20459;-81
2022/05/29 05:08:26;;;;;;;1.27;0.20;;;16.70;69.60;;;;;;5090787;28;20408;-81
2022/05/29 05:10:53;;;;;;;0.70;0.30;;;16.80;69.00;;;;;;5091127;28;20412;-84
2022/05/29 05:13:20;;;;;;;0.80;0.30;;;16.80;69.60;;;;;;5090598;28;20361;-85
2022/05/29 05:15:47;;;;;;;0.77;0.40;;;16.90;69.70;;;;;;5092052;28;20446;-85
2022/05/29 05:18:14;;;;;;;0.40;0.30;;;16.70;69.90;;;;;;5091006;28;20360;-86
2022/05/29 05:20:41;;;;;;;0.20;0.20;;;16.70;70.10;;;;;;5089413;28;20728;-85
2022/05/29 05:23:08;;;;;;;0.22;0.22;;;16.50;69.00;;;;;;5091799;28;20683;-81
2022/05/29 05:25:38;;;;;;;0.33;0.20;;;16.40;69.20;;;;;;5090500;28;20457;-85
2022/05/29 05:28:05;;;;;;;0.20;0.20;;;16.30;69.80;;;;;;5093358;28;20410;-82
2022/05/29 05:30:32;;;;;;;0.55;0.22;;;16.30;71.10;;;;;;5091416;28;20372;-84
2022/05/29 05:32:59;;;;;;;1.30;0.30;;;16.30;70.30;;;;;;5090525;28;20463;-83
2022/05/29 05:35:26;;;;;;;1.00;0.30;;;16.20;71.10;;;;;;5090409;28;20421;-87
2022/05/29 05:37:53;;;;;;;0.30;0.20;;;16.20;70.70;;;;;;5090358;28;20430;-85
2022/05/29 05:40:20;;;;;;;0.20;0.20;;;16.10;70.90;;;;;;5090592;28;20816;-86
2022/05/29 05:42:47;;;;;;;0.98;0.30;;;16.00;71.80;;;;;;5090261;28;20374;-82
2022/05/29 05:45:15;;;;;;;1.30;0.30;;;16.10;71.50;;;;;;5090309;28;20434;-84
2022/05/29 05:47:42;;;;;;;0.20;0.20;;;16.10;71.80;;;;;;5090713;28;20490;-83
2022/05/29 05:50:10;;;;;;;0.60;0.30;;;16.10;73.00;;;;;;5090239;28;20379;-84
2022/05/29 05:52:38;;;;;;;0.30;0.30;;;16.10;73.00;;;;;;5090267;28;20369;-81
2022/05/29 05:55:07;;;;;;;0.25;0.25;;;16.10;71.60;;;;;;5090339;28;20853;-83
2022/05/29 05:57:34;;;;;;;0.80;0.20;;;16.10;72.00;;;;;;5090047;28;20443;-81
2022/05/29 06:00:01;;;;;;;1.50;0.20;;;15.90;71.70;;;;;;5071892;28;20385;-89
2022/05/29 06:02:31;;;;;;;0.50;0.20;;;15.80;72.20;;;;;;5090207;28;20715;-86
2022/05/29 06:04:58;;;;;;;0.95;0.30;;;15.40;72.60;;;;;;5090412;28;20400;-86
2022/05/29 06:07:25;;;;;;;0.60;0.25;;;16.40;73.00;;;;;;5090696;28;20455;-91
2022/05/29 06:09:52;;;;;;;0.40;0.30;;;15.60;73.20;;;;;;5090402;28;20372;-86
2022/05/29 06:12:21;;;;;;;1.77;0.30;;;15.50;74.30;;;;;;5091313;28;20368;-84
2022/05/29 06:14:48;;;;;;;0.32;0.20;;;15.40;75.00;;;;;;5090642;28;20368;-85
2022/05/29 06:17:15;;;;;;;0.60;0.30;;;15.40;75.90;;;;;;5089987;28;20368;-85
2022/05/29 06:19:42;;;;;;;0.75;0.30;;;15.30;76.80;;;;;;5091687;28;20380;-84
2022/05/29 06:22:09;;;;;;;0.50;0.40;;;15.20;77.40;;;;;;5089915;28;20399;-85
2022/05/29 06:24:36;;;;;;;1.48;0.40;;;15.20;77.40;;;;;;5089684;28;20400;-84
2022/05/29 06:27:04;;;;;;;1.58;0.40;;;15.00;77.30;;;;;;5089751;28;20376;-85
2022/05/29 06:29:31;;;;;;;1.30;0.40;;;14.90;78.00;;;;;;5089311;28;20733;-82
2022/05/29 06:32:03;;;;;;;0.40;0.40;;;14.80;78.90;;;;;;5071530;28;20376;-83
2022/05/29 06:34:32;;;;;;;0.77;0.45;;;14.70;79.70;;;;;;5089805;28;20419;-82
2022/05/29 06:37:03;;;;;;;1.70;0.40;;;14.60;80.60;;;;;;5089748;28;20368;-84
2022/05/29 06:39:30;;;;;;;1.40;0.50;;;14.50;82.10;;;;;;5091629;28;20452;-85
2022/05/29 06:41:59;;;;;;;0.85;0.60;;;14.40;82.30;;;;;;5092735;28;20920;-85
2022/05/29 06:44:26;;;;;;;0.85;0.35;;;14.20;82.60;;;;;;5100017;28;20902;-88
2022/05/29 06:46:58;;;;;;;0.68;0.50;;;14.10;82.50;;;;;;5096603;28;20860;-90
2022/05/29 06:49:26;;;;;;;1.58;0.47;;;13.90;83.20;;;;;;5035729;28;20871;-90
2022/05/29 06:51:53;;;;;;;0.50;0.30;;;13.80;84.70;;;;;;5017003;28;20373;-89
2022/05/29 06:54:20;;;;;;;1.50;0.40;;;13.70;86.20;;;;;;5034078;28;20378;-91
2022/05/29 06:56:47;;;;;;;0.30;0.30;;;13.60;87.30;;;;;;5031564;28;20417;-85
2022/05/29 06:59:14;;;;;;;0.55;0.40;;;13.40;89.50;;;;;;5029708;28;20381;-85
2022/05/29 07:07:23;;;;;;;1.25;0.40;;;13.20;90.60;;;;;;4990689;28;20369;-85
2022/05/29 07:09:50;;;;;;;0.73;0.32;;;13.10;91.40;;;;;;4989877;28;20411;-84
2022/05/29 07:12:24;;;;;;;1.48;0.50;;;13.00;91.60;;;;;;4988341;28;20864;-84
2022/05/29 07:15:06;;;;;;;1.17;0.90;;;13.00;92.20;;;;;;4990641;28;20528;-86
2022/05/29 07:17:34;;;;;;;24.70;16.77;;;13.00;92.10;;;;;;4988234;28;20375;-82
2022/05/29 07:20:01;;;;;;;6.07;3.95;;;12.90;92.60;;;;;;4987329;28;20472;-84
2022/05/29 07:22:33;;;;;;;23.77;16.50;;;12.90;91.80;;;;;;4987105;28;20385;-85
2022/05/29 07:25:00;;;;;;;13.02;8.50;;;12.90;92.20;;;;;;4988046;28;20408;-84
2022/05/29 07:27:27;;;;;;;74.15;45.67;;;12.80;92.70;;;;;;5034200;28;20364;-85
2022/05/29 07:29:54;;;;;;;76.93;55.80;;;12.70;92.80;;;;;;5045980;28;20391;-82
2022/05/29 07:32:23;;;;;;;49.50;35.63;;;12.60;93.30;;;;;;5046067;28;20442;-84
2022/05/29 07:34:51;;;;;;;17.38;14.02;;;12.60;93.70;;;;;;5045747;28;20399;-84
2022/05/29 07:37:18;;;;;;;10.13;8.32;;;12.50;93.60;;;;;;5046167;28;20371;-84
2022/05/29 07:39:49;;;;;;;3.55;3.20;;;12.50;93.80;;;;;;5046153;28;20475;-85
2022/05/29 07:45:05;;;;;;;18.08;14.13;;;12.40;94.20;;;;;;5092751;28;20434;-86
2022/05/29 07:47:43;;;;;;;26.13;18.38;;;12.20;94.80;;;;;;5092749;28;20369;-85
2022/05/29 07:50:15;;;;;;;62.63;46.70;;;12.20;95.60;;;;;;5099934;28;20376;-84
2022/05/29 07:52:44;;;;;;;23.77;16.20;;;12.00;96.30;;;;;;5098851;28;20410;-84
2022/05/29 07:55:11;;;;;;;5.65;4.30;;;11.80;96.90;;;;;;5093383;28;20848;-84
2022/05/29 07:57:38;;;;;;;2.55;2.13;;;11.80;97.30;;;;;;5092723;28;20406;-86
2022/05/29 08:00:07;;;;;;;3.08;1.40;;;11.70;98.50;;;;;;5092353;28;20379;-84
2022/05/29 08:02:34;;;;;;;3.63;1.77;;;11.60;99.60;;;;;;5092295;28;20417;-84
2022/05/29 08:05:03;;;;;;;2.45;1.95;;;11.40;99.90;;;;;;5074962;28;20400;-84
2022/05/29 08:07:30;;;;;;;3.23;2.77;;;11.20;99.90;;;;;;5092116;28;20709;-85
2022/05/29 08:09:57;;;;;;;4.97;4.10;;;11.10;99.90;;;;;;5092209;28;20372;-84
2022/05/29 08:12:24;;;;;;;4.10;2.53;;;11.00;99.90;;;;;;5092124;28;20394;-84
2022/05/29 08:14:51;;;;;;;2.83;1.80;;;11.00;99.90;;;;;;5073818;28;20869;-85
2022/05/29 08:17:18;;;;;;;2.50;1.70;;;10.90;99.90;;;;;;5091895;28;20836;-84
2022/05/29 08:19:45;;;;;;;4.07;2.20;;;10.90;99.90;;;;;;5092018;28;20410;-87
2022/05/29 08:22:12;;;;;;;2.67;1.70;;;10.80;99.90;;;;;;5073610;28;20939;-84
2022/05/29 08:33:04;;;;;;;6.72;5.13;;;10.50;99.90;;;;;;5091840;28;20413;-86
2022/05/29 08:35:33;;;;;;;6.33;4.70;;;10.50;99.90;;;;;;5090563;28;20872;-84
2022/05/29 08:38:01;;;;;;;5.93;4.40;;;10.50;99.90;;;;;;5090176;28;20514;-84
2022/05/29 08:40:30;;;;;;;7.00;4.25;;;10.50;99.90;;;;;;5090147;28;20424;-85
2022/05/29 08:42:58;;;;;;;6.20;3.45;;;10.50;99.90;;;;;;5090029;28;20384;-85
2022/05/29 08:45:28;;;;;;;5.25;3.63;;;10.40;99.90;;;;;;5090141;28;20423;-85
2022/05/29 08:47:57;;;;;;;4.80;3.50;;;10.40;99.90;;;;;;5089899;28;20361;-85
2022/05/29 08:50:33;;;;;;;6.57;3.70;;;10.40;99.90;;;;;;5090340;28;20518;-85
2022/05/29 08:53:26;;;;;;;5.97;4.80;;;10.40;99.90;;;;;;5090875;28;20364;-85
2022/05/29 08:55:59;;;;;;;6.22;4.70;;;10.40;99.90;;;;;;5091948;28;20708;-84
2022/05/29 08:58:35;;;;;;;3.50;2.72;;;10.40;99.90;;;;;;5090241;28;20363;-84
2022/05/29 09:01:12;;;;;;;2.30;1.90;;;10.40;99.90;;;;;;5089928;28;20381;-84
2022/05/29 09:03:45;;;;;;;3.00;2.53;;;10.40;99.90;;;;;;5089877;28;20442;-86
2022/05/29 09:06:18;;;;;;;4.05;2.95;;;10.50;99.90;;;;;;5090371;28;20443;-84
2022/05/29 09:08:53;;;;;;;4.00;3.55;;;10.40;99.90;;;;;;5090288;28;20409;-84
2022/05/29 09:11:41;;;;;;;4.50;3.80;;;10.40;99.90;;;;;;5072937;28;20384;-82
2022/05/29 09:14:17;;;;;;;3.35;2.88;;;10.30;99.90;;;;;;5089506;28;20387;-86
2022/05/29 09:16:53;;;;;;;4.35;2.50;;;10.20;99.90;;;;;;5089677;28;20365;-84
2022/05/29 09:19:54;;;;;;;3.33;2.40;;;10.20;99.90;;;;;;5071640;28;20847;-85
2022/05/29 09:22:40;;;;;;;5.35;3.40;;;10.10;99.90;;;;;;5071617;28;20371;-81
2022/05/29 09:25:30;;;;;;;4.97;3.30;;;10.10;99.90;;;;;;5091299;28;20965;-84
2022/05/29 09:28:08;;;;;;;6.22;4.53;;;10.00;99.90;;;;;;5089466;28;20360;-84
2022/05/29 09:30:35;;;;;;;8.57;5.10;;;10.00;99.90;;;;;;5091356;28;20709;-85
2022/05/29 09:33:28;;;;;;;7.85;4.85;;;9.90;99.90;;;;;;5089403;28;20368;-86
2022/05/29 09:36:10;;;;;;;6.78;4.63;;;9.80;99.90;;;;;;4975064;28;3253673;-84
2022/05/29 09:38:51;;;;;;;4.70;4.10;;;9.80;99.90;;;;;;5090763;28;20426;-84
2022/05/29 09:41:33;;;;;;;6.43;4.53;;;9.70;99.90;;;;;;5090368;28;20372;-85
2022/05/29 09:44:09;;;;;;;4.93;3.80;;;9.70;99.90;;;;;;5090269;28;20384;-85
2022/05/29 09:46:39;;;;;;;5.50;3.50;;;9.60;99.90;;;;;;5090137;28;20455;-84
2022/05/29 09:52:04;;;;;;;4.75;3.30;;;9.50;99.90;;;;;;5090490;28;20397;-85
2022/05/29 09:54:33;;;;;;;6.25;3.75;;;9.50;99.90;;;;;;5089912;28;20377;-84
2022/05/29 09:57:13;;;;;;;5.68;3.53;;;9.50;99.90;;;;;;5090101;28;20880;-84
2022/05/29 09:59:44;;;;;;;5.05;3.90;;;9.40;99.90;;;;;;5089946;28;20856;-83
2022/05/29 10:02:36;;;;;;;4.82;3.83;;;9.40;99.90;;;;;;5090165;28;20369;-83
2022/05/29 10:05:04;;;;;;;4.82;4.15;;;9.40;99.90;;;;;;5088939;28;20392;-83
2022/05/29 10:07:36;;;;;;;5.55;3.30;;;9.40;99.90;;;;;;5089912;28;20364;-83
2022/05/29 10:10:13;;;;;;;4.88;4.38;;;9.30;99.90;;;;;;5090976;28;20451;-83
2022/05/29 10:12:39;;;;;;;3.33;3.03;;;9.30;99.90;;;;;;5089676;28;20489;-83
2022/05/29 10:15:32;;;;;;;2.70;2.10;;;9.20;99.90;;;;;;5089884;28;20400;-83
2022/05/29 10:18:05;;;;;;;2.70;2.00;;;9.20;99.90;;;;;;5071751;28;20372;-83
2022/05/29 10:20:43;;;;;;;2.53;2.07;;;9.10;99.90;;;;;;5089501;28;20400;-83
2022/05/29 10:23:13;;;;;;;4.28;1.80;;;9.10;99.90;;;;;;5089506;28;20407;-83
2022/05/29 10:25:54;;;;;;;1.95;1.75;;;9.00;99.90;;;;;;5089523;28;20404;-82
2022/05/29 10:29:10;;;;;;;3.40;2.10;;;9.00;99.90;;;;;;5089573;28;20363;-83
2022/05/29 10:31:39;;;;;;;2.75;1.98;;;9.00;99.90;;;;;;4933137;29;20753;-84
2022/05/29 10:34:10;;;;;;;2.35;1.80;;;8.90;99.90;;;;;;4949040;28;20398;-84
2022/05/29 10:36:39;;;;;;;2.60;2.10;;;8.90;99.90;;;;;;4933448;29;20392;-84
2022/05/29 10:39:10;;;;;;;2.63;1.92;;;8.80;99.90;;;;;;4949471;29;20884;-84
2022/05/29 10:41:41;;;;;;;2.60;2.10;;;8.80;99.90;;;;;;4949035;29;20412;-86
2022/05/29 10:44:14;;;;;;;2.63;2.25;;;8.70;99.90;;;;;;4949661;29;20406;-83
2022/05/29 10:47:02;;;;;;;4.63;3.20;;;8.70;99.90;;;;;;4949277;29;20409;-85
2022/05/29 10:49:34;;;;;;;5.28;3.88;;;8.60;99.90;;;;;;4949261;29;20384;-85
2022/05/29 10:52:19;;;;;;;7.03;4.30;;;8.60;99.90;;;;;;4949069;29;20475;-85
2022/05/29 10:55:12;;;;;;;5.45;4.43;;;8.50;99.90;;;;;;4949062;29;20451;-84
2022/05/29 10:57:57;;;;;;;6.60;3.65;;;8.50;99.90;;;;;;4953238;29;20757;-85
2022/05/29 11:00:37;;;;;;;5.75;3.13;;;8.40;99.90;;;;;;4948900;29;20380;-84
2022/05/29 11:03:42;;;;;;;5.05;3.20;;;8.40;99.90;;;;;;4950661;29;20449;-87
2022/05/29 11:06:21;;;;;;;6.30;4.53;;;8.40;99.90;;;;;;4949080;29;20860;-86
2022/05/29 11:08:48;;;;;;;4.68;2.90;;;8.40;99.90;;;;;;5033411;28;20464;-84
2022/05/29 11:11:46;;;;;;;3.53;2.60;;;8.40;99.90;;;;;;5068870;28;20405;-83
2022/05/29 11:14:49;;;;;;;4.47;2.33;;;8.40;99.90;;;;;;5070347;28;20373;-82
2022/05/29 11:17:42;;;;;;;5.45;2.53;;;8.40;99.90;;;;;;5068804;28;20862;-83
2022/05/29 11:20:28;;;;;;;5.80;2.83;;;8.40;99.90;;;;;;5068793;28;20409;-82
2022/05/29 11:22:54;;;;;;;4.63;2.90;;;8.40;99.90;;;;;;5068730;28;20900;-84
2022/05/29 11:26:11;;;;;;;5.72;2.80;;;8.30;99.90;;;;;;5068678;28;20488;-83
2022/05/29 11:29:01;;;;;;;4.50;2.80;;;8.30;99.90;;;;;;4987210;28;20388;-84
2022/05/29 11:31:38;;;;;;;5.00;3.17;;;8.20;99.90;;;;;;4987300;28;20471;-84
2022/05/29 11:34:21;;;;;;;6.50;3.78;;;8.10;99.90;;;;;;4990454;28;20417;-82
2022/05/29 11:37:14;;;;;;;14.23;8.90;;;8.10;99.90;;;;;;5006741;28;20394;-84
2022/05/29 11:39:46;;;;;;;13.57;8.90;;;8.00;99.90;;;;;;5007247;28;20379;-82
2022/05/29 11:42:29;;;;;;;18.92;11.00;;;8.00;99.90;;;;;;5006491;28;20779;-82
2022/05/29 11:45:05;;;;;;;16.23;9.00;;;8.00;99.90;;;;;;5006927;28;20418;-82
2022/05/29 11:53:36;;;;;;;15.50;6.72;;;7.90;99.90;;;;;;5007287;28;20905;-82
2022/05/29 11:56:20;;;;;;;9.02;4.65;;;7.80;99.90;;;;;;5006765;28;20419;-82
2022/05/29 11:58:59;;;;;;;8.95;3.55;;;7.80;99.90;;;;;;5020368;28;20736;-83
2022/05/29 12:01:36;;;;;;;8.63;3.17;;;7.80;99.90;;;;;;5089111;28;20371;-84
2022/05/29 12:04:31;;;;;;;8.25;3.60;;;7.80;99.90;;;;;;5088408;28;20483;-84
2022/05/29 12:07:37;;;;;;;9.35;3.72;;;7.70;99.90;;;;;;5088146;28;20856;-85
2022/05/29 12:10:38;;;;;;;7.88;3.40;;;7.70;99.90;;;;;;5088252;28;20364;-83
2022/05/29 12:13:12;;;;;;;9.55;3.45;;;7.70;99.90;;;;;;5006043;28;20807;-83
2022/05/29 12:15:41;;;;;;;9.02;3.85;;;7.60;99.90;;;;;;5006503;28;20383;-82
2022/05/29 12:18:15;;;;;;;7.60;3.35;;;7.60;99.90;;;;;;5006718;28;20379;-82
2022/05/29 12:20:44;;;;;;;10.48;3.45;;;7.60;99.90;;;;;;5006392;28;20375;-81
2022/05/29 12:23:26;;;;;;;7.53;3.50;;;7.50;99.90;;;;;;5006236;28;20379;-82
2022/05/29 12:26:08;;;;;;;11.30;4.40;;;7.40;99.90;;;;;;5006129;28;20475;-82
2022/05/29 12:29:05;;;;;;;12.20;4.60;;;7.40;99.90;;;;;;5008037;28;20383;-82
2022/05/29 12:31:42;;;;;;;8.38;4.07;;;7.30;99.90;;;;;;5009929;28;20388;-84
2022/05/29 12:34:17;;;;;;;12.40;4.15;;;7.30;99.90;;;;;;5009451;28;20391;-83
2022/05/29 12:37:05;;;;;;;14.90;4.25;;;7.20;99.90;;;;;;5009686;28;20433;-82
2022/05/29 12:39:55;;;;;;;14.38;4.18;;;7.10;99.90;;;;;;4993209;28;20475;-83
2022/05/29 12:42:37;;;;;;;15.55;4.88;;;7.20;99.90;;;;;;5010106;28;20383;-82
2022/05/29 12:45:25;;;;;;;11.80;6.13;;;7.20;99.90;;;;;;5009354;28;20484;-84
2022/05/29 12:48:32;;;;;;;14.43;6.70;;;7.30;99.90;;;;;;5009409;28;20386;-82
2022/05/29 12:51:02;;;;;;;13.65;7.20;;;7.50;99.90;;;;;;5089084;28;20380;-82
2022/05/29 12:53:55;;;;;;;12.18;7.00;;;7.50;99.90;;;;;;5091630;28;20366;-83
2022/05/29 12:56:49;;;;;;;9.73;6.75;;;7.40;99.90;;;;;;5091348;28;20361;-83
2022/05/29 12:59:22;;;;;;;14.00;7.30;;;7.30;99.90;;;;;;5091468;28;20392;-82
2022/05/29 13:01:55;;;;;;;12.88;7.53;;;7.20;99.90;;;;;;5091559;28;20426;-83
2022/05/29 13:04:53;;;;;;;15.00;7.97;;;7.10;99.90;;;;;;5090847;28;20396;-82
2022/05/29 13:07:27;;;;;;;15.70;9.07;;;7.10;99.90;;;;;;5090841;28;20372;-84
2022/05/29 13:10:06;;;;;;;14.07;9.00;;;7.00;99.90;;;;;;5091562;28;20361;-84
2022/05/29 13:12:43;;;;;;;12.98;8.82;;;7.00;99.90;;;;;;5090694;28;20379;-83
2022/05/29 13:15:23;;;;;;;12.23;8.52;;;7.00;99.90;;;;;;5090789;28;20860;-85
2022/05/29 13:21:09;;;;;;;12.77;9.40;;;6.90;99.90;;;;;;5090679;28;20357;-85
2022/05/29 13:23:44;;;;;;;12.57;9.30;;;6.90;99.90;;;;;;5090793;28;20376;-82
2022/05/29 13:26:16;;;;;;;13.43;9.70;;;6.90;99.90;;;;;;5089255;28;20392;-83
2022/05/29 13:28:46;;;;;;;15.35;9.35;;;7.00;99.90;;;;;;5090589;28;20453;-82
2022/05/29 13:31:16;;;;;;;12.20;8.30;;;7.00;99.90;;;;;;5090458;28;20433;-83
2022/05/29 13:33:52;;;;;;;16.08;9.07;;;7.20;99.90;;;;;;5090381;28;20408;-83
2022/05/29 13:36:47;;;;;;;13.88;8.10;;;7.30;99.90;;;;;;5070145;28;20469;-83
2022/05/29 13:39:30;;;;;;;14.10;7.72;;;7.40;99.90;;;;;;4968503;28;20379;-82
2022/05/29 13:42:22;;;;;;;14.30;7.85;;;7.30;99.90;;;;;;4969327;28;20391;-83
2022/05/29 13:44:49;;;;;;;13.67;8.00;;;7.30;99.90;;;;;;4969630;28;20493;-84
2022/05/29 13:47:22;;;;;;;16.50;8.27;;;7.20;99.90;;;;;;4969241;28;20495;-83
2022/05/29 13:49:57;;;;;;;13.75;8.98;;;7.10;99.90;;;;;;4969086;28;20410;-82
2022/05/29 13:52:30;;;;;;;15.32;10.52;;;7.10;99.90;;;;;;4969565;28;20429;-83
2022/05/29 13:55:10;;;;;;;13.52;9.60;;;6.90;99.90;;;;;;4969267;28;20474;-83
2022/05/29 14:04:03;;;;;;;12.48;7.85;;;6.80;99.90;;;;;;4969411;28;20507;-83
2022/05/29 14:06:40;;;;;;;9.38;7.30;;;6.80;99.90;;;;;;4968752;28;20438;-84
2022/05/29 14:09:27;;;;;;;10.37;7.20;;;6.80;99.90;;;;;;4969000;28;20383;-83